sensor_id;sensor_type;location;lat;lon;timestamp;P1;durP1;ratioP1;P2;durP2;ratioP2
39176;SDS011;24904;52.208;21.192;2024-02-23T00:00:21;10.10;;;7.30;;
39176;SDS011;24904;52.208;21.192;2024-02-23T00:05:26;9.60;;;7.00;;
39176;SDS011;24904;52.208;21.192;2024-02-23T00:10:31;12.00;;;8.10;;
39176;SDS011;24904;52.208;21.192;2024-02-23T00:15:37;10.90;;;6.90;;
39176;SDS011;24904;52.208;21.192;2024-02-23T00:20:42;11.50;;;7.40;;
39176;SDS011;24904;52.208;21.192;2024-02-23T00:25:47;14.30;;;7.60;;
39176;SDS011;24904;52.208;21.192;2024-02-23T00:30:52;10.50;;;7.50;;
39176;SDS011;24904;52.208;21.192;2024-02-23T00:35:57;10.90;;;7.50;;
39176;SDS011;24904;52.208;21.192;2024-02-23T00:41:02;8.40;;;6.70;;
39176;SDS011;24904;52.208;21.192;2024-02-23T00:46:08;10.90;;;7.50;;
39176;SDS011;24904;52.208;21.192;2024-02-23T00:51:13;12.80;;;7.40;;
39176;SDS011;24904;52.208;21.192;2024-02-23T00:56:18;10.30;;;7.20;;
39176;SDS011;24904;52.208;21.192;2024-02-23T01:01:23;10.30;;;6.50;;
39176;SDS011;24904;52.208;21.192;2024-02-23T01:06:30;13.10;;;7.30;;
39176;SDS011;24904;52.208;21.192;2024-02-23T01:11:35;11.00;;;6.30;;
39176;SDS011;24904;52.208;21.192;2024-02-23T01:16:40;11.10;;;7.10;;
39176;SDS011;24904;52.208;21.192;2024-02-23T01:21:45;10.40;;;7.30;;
39176;SDS011;24904;52.208;21.192;2024-02-23T01:26:50;12.50;;;6.80;;
39176;SDS011;24904;52.208;21.192;2024-02-23T01:31:55;9.80;;;6.90;;
39176;SDS011;24904;52.208;21.192;2024-02-23T01:37:01;8.50;;;6.40;;
39176;SDS011;24904;52.208;21.192;2024-02-23T01:42:06;9.00;;;6.10;;
39176;SDS011;24904;52.208;21.192;2024-02-23T01:47:11;9.60;;;6.10;;
39176;SDS011;24904;52.208;21.192;2024-02-23T01:52:16;8.40;;;6.00;;
39176;SDS011;24904;52.208;21.192;2024-02-23T01:57:23;7.80;;;6.10;;
39176;SDS011;24904;52.208;21.192;2024-02-23T02:02:28;9.60;;;6.00;;
39176;SDS011;24904;52.208;21.192;2024-02-23T02:07:34;8.30;;;5.40;;
39176;SDS011;24904;52.208;21.192;2024-02-23T02:12:39;8.50;;;5.60;;
39176;SDS011;24904;52.208;21.192;2024-02-23T02:17:44;7.50;;;5.60;;
39176;SDS011;24904;52.208;21.192;2024-02-23T02:22:49;10.70;;;5.80;;
39176;SDS011;24904;52.208;21.192;2024-02-23T02:27:54;7.40;;;5.10;;
39176;SDS011;24904;52.208;21.192;2024-02-23T02:32:59;9.30;;;5.10;;
39176;SDS011;24904;52.208;21.192;2024-02-23T02:38:04;8.10;;;5.10;;
39176;SDS011;24904;52.208;21.192;2024-02-23T02:43:09;7.10;;;4.40;;
39176;SDS011;24904;52.208;21.192;2024-02-23T02:48:14;8.00;;;4.60;;
39176;SDS011;24904;52.208;21.192;2024-02-23T02:53:19;8.10;;;4.70;;
39176;SDS011;24904;52.208;21.192;2024-02-23T02:58:25;7.80;;;4.80;;
39176;SDS011;24904;52.208;21.192;2024-02-23T03:03:30;8.10;;;4.80;;
39176;SDS011;24904;52.208;21.192;2024-02-23T03:08:35;7.30;;;4.00;;
39176;SDS011;24904;52.208;21.192;2024-02-23T03:13:40;7.50;;;4.70;;
39176;SDS011;24904;52.208;21.192;2024-02-23T03:18:45;6.70;;;4.10;;
39176;SDS011;24904;52.208;21.192;2024-02-23T03:23:50;10.90;;;4.40;;
39176;SDS011;24904;52.208;21.192;2024-02-23T03:28:55;9.10;;;5.10;;
39176;SDS011;24904;52.208;21.192;2024-02-23T03:34:01;7.70;;;4.50;;
39176;SDS011;24904;52.208;21.192;2024-02-23T03:39:06;7.70;;;4.70;;
39176;SDS011;24904;52.208;21.192;2024-02-23T03:44:12;8.20;;;4.80;;
39176;SDS011;24904;52.208;21.192;2024-02-23T03:49:17;5.60;;;4.10;;
39176;SDS011;24904;52.208;21.192;2024-02-23T03:54:22;6.50;;;4.10;;
39176;SDS011;24904;52.208;21.192;2024-02-23T03:59:27;7.50;;;4.20;;
39176;SDS011;24904;52.208;21.192;2024-02-23T04:04:32;5.90;;;4.00;;
39176;SDS011;24904;52.208;21.192;2024-02-23T04:09:37;5.90;;;4.10;;
39176;SDS011;24904;52.208;21.192;2024-02-23T04:14:42;7.40;;;4.80;;
39176;SDS011;24904;52.208;21.192;2024-02-23T04:19:47;5.90;;;4.40;;
39176;SDS011;24904;52.208;21.192;2024-02-23T04:24:52;6.90;;;4.60;;
39176;SDS011;24904;52.208;21.192;2024-02-23T04:29:57;9.30;;;4.80;;
39176;SDS011;24904;52.208;21.192;2024-02-23T04:35:02;7.20;;;5.00;;
39176;SDS011;24904;52.208;21.192;2024-02-23T04:40:09;6.80;;;4.10;;
39176;SDS011;24904;52.208;21.192;2024-02-23T04:45:15;5.70;;;4.20;;
39176;SDS011;24904;52.208;21.192;2024-02-23T04:50:20;7.40;;;4.70;;
39176;SDS011;24904;52.208;21.192;2024-02-23T04:55:25;7.10;;;4.30;;
39176;SDS011;24904;52.208;21.192;2024-02-23T05:00:30;6.40;;;4.50;;
39176;SDS011;24904;52.208;21.192;2024-02-23T05:05:35;7.40;;;4.40;;
39176;SDS011;24904;52.208;21.192;2024-02-23T05:10:41;7.40;;;4.70;;
39176;SDS011;24904;52.208;21.192;2024-02-23T05:15:46;5.90;;;3.90;;
39176;SDS011;24904;52.208;21.192;2024-02-23T05:20:51;5.80;;;3.90;;
39176;SDS011;24904;52.208;21.192;2024-02-23T05:25:56;10.90;;;5.00;;
39176;SDS011;24904;52.208;21.192;2024-02-23T05:31:03;5.90;;;4.60;;
39176;SDS011;24904;52.208;21.192;2024-02-23T05:36:08;6.00;;;4.10;;
39176;SDS011;24904;52.208;21.192;2024-02-23T05:41:13;6.20;;;4.40;;
39176;SDS011;24904;52.208;21.192;2024-02-23T05:46:18;7.80;;;3.90;;
39176;SDS011;24904;52.208;21.192;2024-02-23T05:51:26;5.90;;;3.90;;
39176;SDS011;24904;52.208;21.192;2024-02-23T05:56:31;7.20;;;3.90;;
39176;SDS011;24904;52.208;21.192;2024-02-23T06:01:36;6.50;;;4.20;;
39176;SDS011;24904;52.208;21.192;2024-02-23T06:06:42;6.70;;;4.40;;
39176;SDS011;24904;52.208;21.192;2024-02-23T06:11:47;5.60;;;4.10;;
39176;SDS011;24904;52.208;21.192;2024-02-23T06:16:52;6.90;;;4.40;;
39176;SDS011;24904;52.208;21.192;2024-02-23T06:26:40;5.60;;;3.60;;
39176;SDS011;24904;52.208;21.192;2024-02-23T06:31:45;4.10;;;3.20;;
39176;SDS011;24904;52.208;21.192;2024-02-23T06:36:51;7.40;;;4.00;;
39176;SDS011;24904;52.208;21.192;2024-02-23T06:41:56;6.20;;;3.60;;
39176;SDS011;24904;52.208;21.192;2024-02-23T06:47:03;5.40;;;3.40;;
39176;SDS011;24904;52.208;21.192;2024-02-23T06:52:08;5.60;;;3.20;;
39176;SDS011;24904;52.208;21.192;2024-02-23T06:57:14;5.10;;;3.40;;
39176;SDS011;24904;52.208;21.192;2024-02-23T07:02:19;4.90;;;3.20;;
39176;SDS011;24904;52.208;21.192;2024-02-23T07:07:24;8.20;;;3.60;;
39176;SDS011;24904;52.208;21.192;2024-02-23T07:12:29;6.20;;;3.60;;
39176;SDS011;24904;52.208;21.192;2024-02-23T07:17:34;5.70;;;3.80;;
39176;SDS011;24904;52.208;21.192;2024-02-23T07:22:42;7.10;;;3.80;;
39176;SDS011;24904;52.208;21.192;2024-02-23T07:27:48;3.80;;;2.90;;
39176;SDS011;24904;52.208;21.192;2024-02-23T07:32:53;4.20;;;3.10;;
39176;SDS011;24904;52.208;21.192;2024-02-23T07:37:59;6.50;;;3.30;;
39176;SDS011;24904;52.208;21.192;2024-02-23T07:43:04;6.80;;;3.60;;
39176;SDS011;24904;52.208;21.192;2024-02-23T07:48:09;4.00;;;3.10;;
39176;SDS011;24904;52.208;21.192;2024-02-23T07:53:14;5.30;;;3.30;;
39176;SDS011;24904;52.208;21.192;2024-02-23T07:58:19;5.40;;;3.00;;
39176;SDS011;24904;52.208;21.192;2024-02-23T08:03:24;5.10;;;3.30;;
39176;SDS011;24904;52.208;21.192;2024-02-23T08:08:29;5.60;;;3.40;;
39176;SDS011;24904;52.208;21.192;2024-02-23T08:13:36;7.20;;;3.90;;
39176;SDS011;24904;52.208;21.192;2024-02-23T08:18:42;8.50;;;4.10;;
39176;SDS011;24904;52.208;21.192;2024-02-23T08:23:47;5.70;;;3.50;;
39176;SDS011;24904;52.208;21.192;2024-02-23T08:28:52;7.50;;;3.60;;
39176;SDS011;24904;52.208;21.192;2024-02-23T08:33:58;6.10;;;3.70;;
39176;SDS011;24904;52.208;21.192;2024-02-23T08:39:03;5.30;;;3.60;;
39176;SDS011;24904;52.208;21.192;2024-02-23T08:44:09;5.20;;;3.40;;
39176;SDS011;24904;52.208;21.192;2024-02-23T08:49:14;7.50;;;3.30;;
39176;SDS011;24904;52.208;21.192;2024-02-23T08:54:19;5.80;;;3.60;;
39176;SDS011;24904;52.208;21.192;2024-02-23T08:59:24;8.60;;;4.50;;
39176;SDS011;24904;52.208;21.192;2024-02-23T09:04:29;7.80;;;4.50;;
39176;SDS011;24904;52.208;21.192;2024-02-23T09:09:34;5.60;;;3.80;;
39176;SDS011;24904;52.208;21.192;2024-02-23T09:14:39;7.40;;;3.90;;
39176;SDS011;24904;52.208;21.192;2024-02-23T09:19:45;8.60;;;4.40;;
39176;SDS011;24904;52.208;21.192;2024-02-23T09:24:50;7.40;;;4.40;;
39176;SDS011;24904;52.208;21.192;2024-02-23T09:29:55;8.30;;;4.60;;
39176;SDS011;24904;52.208;21.192;2024-02-23T09:35:00;7.70;;;4.20;;
39176;SDS011;24904;52.208;21.192;2024-02-23T09:40:07;9.30;;;5.00;;
39176;SDS011;24904;52.208;21.192;2024-02-23T09:45:13;9.10;;;4.50;;
39176;SDS011;24904;52.208;21.192;2024-02-23T09:50:19;9.60;;;4.70;;
39176;SDS011;24904;52.208;21.192;2024-02-23T09:55:25;7.20;;;4.30;;
39176;SDS011;24904;52.208;21.192;2024-02-23T10:00:30;9.00;;;5.00;;
39176;SDS011;24904;52.208;21.192;2024-02-23T10:05:38;9.70;;;5.10;;
39176;SDS011;24904;52.208;21.192;2024-02-23T10:10:45;7.60;;;4.90;;
39176;SDS011;24904;52.208;21.192;2024-02-23T10:15:52;6.40;;;4.50;;
39176;SDS011;24904;52.208;21.192;2024-02-23T10:20:57;9.80;;;4.40;;
39176;SDS011;24904;52.208;21.192;2024-02-23T10:26:02;8.10;;;4.70;;
39176;SDS011;24904;52.208;21.192;2024-02-23T10:31:09;6.10;;;4.60;;
39176;SDS011;24904;52.208;21.192;2024-02-23T10:36:15;7.60;;;5.50;;
39176;SDS011;24904;52.208;21.192;2024-02-23T10:41:21;10.40;;;5.70;;
39176;SDS011;24904;52.208;21.192;2024-02-23T10:46:26;8.60;;;5.40;;
39176;SDS011;24904;52.208;21.192;2024-02-23T10:51:33;9.80;;;5.90;;
39176;SDS011;24904;52.208;21.192;2024-02-23T10:56:39;7.60;;;5.30;;
39176;SDS011;24904;52.208;21.192;2024-02-23T11:01:45;10.10;;;5.30;;
39176;SDS011;24904;52.208;21.192;2024-02-23T11:06:53;13.30;;;6.00;;
39176;SDS011;24904;52.208;21.192;2024-02-23T11:12:03;12.10;;;6.30;;
39176;SDS011;24904;52.208;21.192;2024-02-23T11:17:09;10.70;;;6.40;;
39176;SDS011;24904;52.208;21.192;2024-02-23T11:22:26;12.90;;;7.20;;
39176;SDS011;24904;52.208;21.192;2024-02-23T11:27:33;12.80;;;6.90;;
39176;SDS011;24904;52.208;21.192;2024-02-23T11:32:40;17.30;;;8.10;;
39176;SDS011;24904;52.208;21.192;2024-02-23T11:37:48;10.50;;;6.30;;
39176;SDS011;24904;52.208;21.192;2024-02-23T11:42:59;12.10;;;6.20;;
39176;SDS011;24904;52.208;21.192;2024-02-23T11:48:05;10.50;;;6.70;;
39176;SDS011;24904;52.208;21.192;2024-02-23T11:53:11;9.50;;;6.40;;
39176;SDS011;24904;52.208;21.192;2024-02-23T11:58:16;9.20;;;6.50;;
39176;SDS011;24904;52.208;21.192;2024-02-23T12:03:22;10.00;;;6.50;;
39176;SDS011;24904;52.208;21.192;2024-02-23T12:17:06;12.20;;;6.70;;
39176;SDS011;24904;52.208;21.192;2024-02-23T12:22:12;14.70;;;6.80;;
39176;SDS011;24904;52.208;21.192;2024-02-23T12:27:18;11.70;;;6.70;;
39176;SDS011;24904;52.208;21.192;2024-02-23T12:32:24;8.80;;;6.80;;
39176;SDS011;24904;52.208;21.192;2024-02-23T12:37:29;10.60;;;7.20;;
39176;SDS011;24904;52.208;21.192;2024-02-23T12:42:39;10.40;;;6.90;;
39176;SDS011;24904;52.208;21.192;2024-02-23T12:47:44;11.10;;;7.30;;
39176;SDS011;24904;52.208;21.192;2024-02-23T12:52:49;10.10;;;6.30;;
39176;SDS011;24904;52.208;21.192;2024-02-23T12:57:54;13.20;;;7.30;;
39176;SDS011;24904;52.208;21.192;2024-02-23T13:02:59;15.20;;;7.30;;
39176;SDS011;24904;52.208;21.192;2024-02-23T13:08:05;12.20;;;7.30;;
39176;SDS011;24904;52.208;21.192;2024-02-23T13:13:10;12.90;;;8.00;;
39176;SDS011;24904;52.208;21.192;2024-02-23T13:18:16;10.10;;;6.90;;
39176;SDS011;24904;52.208;21.192;2024-02-23T13:23:22;10.60;;;7.60;;
39176;SDS011;24904;52.208;21.192;2024-02-23T13:28:27;14.00;;;7.70;;
39176;SDS011;24904;52.208;21.192;2024-02-23T13:33:32;12.30;;;8.30;;
39176;SDS011;24904;52.208;21.192;2024-02-23T13:38:37;12.10;;;8.00;;
39176;SDS011;24904;52.208;21.192;2024-02-23T13:43:43;14.10;;;8.10;;
39176;SDS011;24904;52.208;21.192;2024-02-23T13:48:49;12.20;;;8.10;;
39176;SDS011;24904;52.208;21.192;2024-02-23T13:54:07;11.20;;;7.50;;
39176;SDS011;24904;52.208;21.192;2024-02-23T13:59:12;11.80;;;8.90;;
39176;SDS011;24904;52.208;21.192;2024-02-23T14:04:18;12.50;;;8.90;;
39176;SDS011;24904;52.208;21.192;2024-02-23T14:09:23;15.10;;;8.50;;
39176;SDS011;24904;52.208;21.192;2024-02-23T14:14:28;15.50;;;9.10;;
39176;SDS011;24904;52.208;21.192;2024-02-23T14:19:33;12.70;;;8.30;;
39176;SDS011;24904;52.208;21.192;2024-02-23T14:24:38;15.40;;;9.30;;
39176;SDS011;24904;52.208;21.192;2024-02-23T14:29:43;14.40;;;8.70;;
39176;SDS011;24904;52.208;21.192;2024-02-23T14:34:49;12.60;;;9.70;;
39176;SDS011;24904;52.208;21.192;2024-02-23T14:39:54;17.80;;;8.90;;
39176;SDS011;24904;52.208;21.192;2024-02-23T14:44:59;16.50;;;8.90;;
39176;SDS011;24904;52.208;21.192;2024-02-23T14:50:05;15.30;;;10.30;;
39176;SDS011;24904;52.208;21.192;2024-02-23T14:55:11;14.60;;;10.40;;
39176;SDS011;24904;52.208;21.192;2024-02-23T15:00:17;22.60;;;11.50;;
39176;SDS011;24904;52.208;21.192;2024-02-23T15:05:22;23.30;;;13.70;;
39176;SDS011;24904;52.208;21.192;2024-02-23T15:10:28;22.30;;;14.50;;
39176;SDS011;24904;52.208;21.192;2024-02-23T15:15:33;32.30;;;17.80;;
39176;SDS011;24904;52.208;21.192;2024-02-23T15:20:42;26.80;;;15.20;;
39176;SDS011;24904;52.208;21.192;2024-02-23T15:25:48;20.50;;;14.10;;
39176;SDS011;24904;52.208;21.192;2024-02-23T15:30:53;22.80;;;14.10;;
39176;SDS011;24904;52.208;21.192;2024-02-23T15:35:58;19.60;;;12.70;;
39176;SDS011;24904;52.208;21.192;2024-02-23T15:41:06;18.30;;;12.50;;
39176;SDS011;24904;52.208;21.192;2024-02-23T15:46:11;20.70;;;13.00;;
39176;SDS011;24904;52.208;21.192;2024-02-23T15:51:16;17.60;;;11.80;;
39176;SDS011;24904;52.208;21.192;2024-02-23T15:56:22;17.80;;;12.90;;
39176;SDS011;24904;52.208;21.192;2024-02-23T16:01:27;19.70;;;12.70;;
39176;SDS011;24904;52.208;21.192;2024-02-23T16:06:32;24.10;;;14.40;;
39176;SDS011;24904;52.208;21.192;2024-02-23T16:11:37;22.70;;;12.60;;
39176;SDS011;24904;52.208;21.192;2024-02-23T16:16:47;17.50;;;12.60;;
39176;SDS011;24904;52.208;21.192;2024-02-23T16:21:52;19.60;;;14.20;;
39176;SDS011;24904;52.208;21.192;2024-02-23T16:26:57;19.20;;;13.00;;
39176;SDS011;24904;52.208;21.192;2024-02-23T16:32:03;18.00;;;12.90;;
39176;SDS011;24904;52.208;21.192;2024-02-23T16:37:08;19.00;;;13.50;;
39176;SDS011;24904;52.208;21.192;2024-02-23T16:42:13;18.60;;;13.50;;
39176;SDS011;24904;52.208;21.192;2024-02-23T16:47:18;20.70;;;14.00;;
39176;SDS011;24904;52.208;21.192;2024-02-23T16:52:23;23.80;;;14.50;;
39176;SDS011;24904;52.208;21.192;2024-02-23T16:57:28;20.40;;;14.30;;
39176;SDS011;24904;52.208;21.192;2024-02-23T17:02:33;20.50;;;14.60;;
39176;SDS011;24904;52.208;21.192;2024-02-23T17:07:40;25.20;;;14.90;;
39176;SDS011;24904;52.208;21.192;2024-02-23T17:12:46;20.50;;;14.40;;
39176;SDS011;24904;52.208;21.192;2024-02-23T17:17:51;22.30;;;15.20;;
39176;SDS011;24904;52.208;21.192;2024-02-23T17:22:56;22.10;;;15.90;;
39176;SDS011;24904;52.208;21.192;2024-02-23T17:28:01;17.60;;;13.40;;
39176;SDS011;24904;52.208;21.192;2024-02-23T17:33:07;22.90;;;15.20;;
39176;SDS011;24904;52.208;21.192;2024-02-23T17:38:12;22.50;;;15.80;;
39176;SDS011;24904;52.208;21.192;2024-02-23T17:43:17;20.50;;;14.90;;
39176;SDS011;24904;52.208;21.192;2024-02-23T17:48:23;20.10;;;15.40;;
39176;SDS011;24904;52.208;21.192;2024-02-23T17:53:29;21.20;;;16.00;;
39176;SDS011;24904;52.208;21.192;2024-02-23T17:58:34;20.20;;;14.50;;
39176;SDS011;24904;52.208;21.192;2024-02-23T18:03:39;19.40;;;14.70;;
39176;SDS011;24904;52.208;21.192;2024-02-23T18:08:44;19.60;;;14.30;;
39176;SDS011;24904;52.208;21.192;2024-02-23T18:13:49;23.70;;;16.40;;
39176;SDS011;24904;52.208;21.192;2024-02-23T18:18:57;27.00;;;17.10;;
39176;SDS011;24904;52.208;21.192;2024-02-23T18:24:06;23.80;;;15.90;;
39176;SDS011;24904;52.208;21.192;2024-02-23T18:29:11;23.10;;;17.30;;
39176;SDS011;24904;52.208;21.192;2024-02-23T18:34:16;27.20;;;16.80;;
39176;SDS011;24904;52.208;21.192;2024-02-23T18:39:22;24.00;;;16.30;;
39176;SDS011;24904;52.208;21.192;2024-02-23T18:44:28;31.00;;;19.80;;
39176;SDS011;24904;52.208;21.192;2024-02-23T18:49:33;27.10;;;18.90;;
39176;SDS011;24904;52.208;21.192;2024-02-23T18:54:38;27.40;;;18.80;;
39176;SDS011;24904;52.208;21.192;2024-02-23T18:59:43;39.80;;;21.50;;
39176;SDS011;24904;52.208;21.192;2024-02-23T19:04:48;34.00;;;22.40;;
39176;SDS011;24904;52.208;21.192;2024-02-23T19:09:53;30.80;;;23.10;;
39176;SDS011;24904;52.208;21.192;2024-02-23T19:14:58;33.20;;;23.50;;
39176;SDS011;24904;52.208;21.192;2024-02-23T19:20:04;36.10;;;24.60;;
39176;SDS011;24904;52.208;21.192;2024-02-23T19:25:10;33.90;;;22.60;;
39176;SDS011;24904;52.208;21.192;2024-02-23T19:30:16;33.30;;;22.80;;
39176;SDS011;24904;52.208;21.192;2024-02-23T19:35:21;31.20;;;19.70;;
39176;SDS011;24904;52.208;21.192;2024-02-23T19:40:26;31.50;;;19.70;;
39176;SDS011;24904;52.208;21.192;2024-02-23T19:45:31;29.80;;;20.30;;
39176;SDS011;24904;52.208;21.192;2024-02-23T19:50:37;27.50;;;18.40;;
39176;SDS011;24904;52.208;21.192;2024-02-23T19:55:42;27.70;;;18.10;;
39176;SDS011;24904;52.208;21.192;2024-02-23T20:00:49;29.80;;;18.70;;
39176;SDS011;24904;52.208;21.192;2024-02-23T20:05:54;28.90;;;20.30;;
39176;SDS011;24904;52.208;21.192;2024-02-23T20:10:59;33.70;;;21.60;;
39176;SDS011;24904;52.208;21.192;2024-02-23T20:16:04;32.50;;;20.80;;
39176;SDS011;24904;52.208;21.192;2024-02-23T20:21:09;36.20;;;22.80;;
39176;SDS011;24904;52.208;21.192;2024-02-23T20:26:15;31.50;;;22.40;;
39176;SDS011;24904;52.208;21.192;2024-02-23T20:31:20;33.10;;;21.10;;
39176;SDS011;24904;52.208;21.192;2024-02-23T20:36:25;28.70;;;19.70;;
39176;SDS011;24904;52.208;21.192;2024-02-23T20:41:30;28.30;;;19.90;;
39176;SDS011;24904;52.208;21.192;2024-02-23T20:46:35;28.20;;;20.10;;
39176;SDS011;24904;52.208;21.192;2024-02-23T20:51:41;28.60;;;21.30;;
39176;SDS011;24904;52.208;21.192;2024-02-23T20:56:50;32.20;;;21.20;;
39176;SDS011;24904;52.208;21.192;2024-02-23T21:01:55;30.00;;;20.40;;
39176;SDS011;24904;52.208;21.192;2024-02-23T21:07:00;33.10;;;20.20;;
39176;SDS011;24904;52.208;21.192;2024-02-23T21:12:07;31.40;;;20.30;;
39176;SDS011;24904;52.208;21.192;2024-02-23T21:17:12;29.00;;;20.00;;
39176;SDS011;24904;52.208;21.192;2024-02-23T21:22:17;34.50;;;21.90;;
39176;SDS011;24904;52.208;21.192;2024-02-23T21:27:22;30.30;;;22.20;;
39176;SDS011;24904;52.208;21.192;2024-02-23T21:32:27;37.30;;;23.40;;
39176;SDS011;24904;52.208;21.192;2024-02-23T21:37:32;43.60;;;27.00;;
39176;SDS011;24904;52.208;21.192;2024-02-23T21:42:38;46.00;;;28.80;;
39176;SDS011;24904;52.208;21.192;2024-02-23T21:47:43;52.20;;;31.50;;
39176;SDS011;24904;52.208;21.192;2024-02-23T21:52:48;51.80;;;32.60;;
39176;SDS011;24904;52.208;21.192;2024-02-23T21:57:53;52.30;;;31.90;;
39176;SDS011;24904;52.208;21.192;2024-02-23T22:02:58;52.30;;;31.90;;
39176;SDS011;24904;52.208;21.192;2024-02-23T22:08:05;47.10;;;29.60;;
39176;SDS011;24904;52.208;21.192;2024-02-23T22:13:11;46.80;;;29.30;;
39176;SDS011;24904;52.208;21.192;2024-02-23T22:18:16;44.50;;;27.10;;
39176;SDS011;24904;52.208;21.192;2024-02-23T22:23:21;45.60;;;26.80;;
39176;SDS011;24904;52.208;21.192;2024-02-23T22:28:26;41.80;;;26.00;;
39176;SDS011;24904;52.208;21.192;2024-02-23T22:33:31;35.20;;;23.70;;
39176;SDS011;24904;52.208;21.192;2024-02-23T22:38:37;32.60;;;21.40;;
39176;SDS011;24904;52.208;21.192;2024-02-23T22:43:42;31.20;;;19.70;;
39176;SDS011;24904;52.208;21.192;2024-02-23T22:48:47;29.10;;;20.20;;
39176;SDS011;24904;52.208;21.192;2024-02-23T22:53:52;34.60;;;20.40;;
39176;SDS011;24904;52.208;21.192;2024-02-23T22:58:57;29.20;;;19.70;;
39176;SDS011;24904;52.208;21.192;2024-02-23T23:04:02;29.20;;;19.80;;
39176;SDS011;24904;52.208;21.192;2024-02-23T23:09:08;25.70;;;17.40;;
39176;SDS011;24904;52.208;21.192;2024-02-23T23:14:13;24.60;;;16.80;;
39176;SDS011;24904;52.208;21.192;2024-02-23T23:19:18;25.30;;;17.80;;
39176;SDS011;24904;52.208;21.192;2024-02-23T23:24:24;29.70;;;18.90;;
39176;SDS011;24904;52.208;21.192;2024-02-23T23:29:30;30.40;;;18.90;;
39176;SDS011;24904;52.208;21.192;2024-02-23T23:34:35;28.30;;;18.30;;
39176;SDS011;24904;52.208;21.192;2024-02-23T23:39:40;30.60;;;19.30;;
39176;SDS011;24904;52.208;21.192;2024-02-23T23:44:50;35.00;;;20.70;;
39176;SDS011;24904;52.208;21.192;2024-02-23T23:49:55;28.90;;;18.40;;
39176;SDS011;24904;52.208;21.192;2024-02-23T23:55:00;30.00;;;18.60;;
